sensor_id;sensor_type;location;lat;lon;timestamp;P1;durP1;ratioP1;P2;durP2;ratioP2
81298;SDS011;70766;53.170;18.160;2024-03-08T00:00:17;22.10;;;9.70;;
81298;SDS011;70766;53.170;18.160;2024-03-08T00:03:09;21.20;;;8.40;;
81298;SDS011;70766;53.170;18.160;2024-03-08T00:05:38;20.10;;;7.70;;
81298;SDS011;70766;53.170;18.160;2024-03-08T00:08:07;25.30;;;9.10;;
81298;SDS011;70766;53.170;18.160;2024-03-08T00:10:38;20.30;;;8.80;;
81298;SDS011;70766;53.170;18.160;2024-03-08T00:13:07;27.20;;;9.70;;
81298;SDS011;70766;53.170;18.160;2024-03-08T00:15:35;22.60;;;9.40;;
81298;SDS011;70766;53.170;18.160;2024-03-08T00:18:03;24.80;;;8.90;;
81298;SDS011;70766;53.170;18.160;2024-03-08T00:20:32;21.60;;;8.90;;
81298;SDS011;70766;53.170;18.160;2024-03-08T00:23:01;26.60;;;9.20;;
81298;SDS011;70766;53.170;18.160;2024-03-08T00:25:29;23.70;;;9.00;;
81298;SDS011;70766;53.170;18.160;2024-03-08T00:27:57;29.50;;;10.30;;
81298;SDS011;70766;53.170;18.160;2024-03-08T00:30:25;21.90;;;8.20;;
81298;SDS011;70766;53.170;18.160;2024-03-08T00:32:53;26.40;;;10.30;;
81298;SDS011;70766;53.170;18.160;2024-03-08T00:35:21;23.70;;;9.30;;
81298;SDS011;70766;53.170;18.160;2024-03-08T00:37:50;23.80;;;8.70;;
81298;SDS011;70766;53.170;18.160;2024-03-08T00:40:18;26.80;;;9.50;;
81298;SDS011;70766;53.170;18.160;2024-03-08T00:42:46;25.40;;;8.20;;
81298;SDS011;70766;53.170;18.160;2024-03-08T00:45:15;23.00;;;9.20;;
81298;SDS011;70766;53.170;18.160;2024-03-08T00:47:43;24.30;;;9.70;;
81298;SDS011;70766;53.170;18.160;2024-03-08T00:50:12;20.40;;;8.20;;
81298;SDS011;70766;53.170;18.160;2024-03-08T00:52:40;25.40;;;8.70;;
81298;SDS011;70766;53.170;18.160;2024-03-08T00:55:09;30.40;;;9.80;;
81298;SDS011;70766;53.170;18.160;2024-03-08T00:57:39;22.90;;;8.20;;
81298;SDS011;70766;53.170;18.160;2024-03-08T01:00:07;22.20;;;9.30;;
81298;SDS011;70766;53.170;18.160;2024-03-08T01:02:40;25.10;;;9.80;;
81298;SDS011;70766;53.170;18.160;2024-03-08T01:05:08;26.40;;;10.40;;
81298;SDS011;70766;53.170;18.160;2024-03-08T01:07:37;23.70;;;9.90;;
81298;SDS011;70766;53.170;18.160;2024-03-08T01:10:05;30.20;;;10.70;;
81298;SDS011;70766;53.170;18.160;2024-03-08T01:12:40;20.50;;;8.80;;
81298;SDS011;70766;53.170;18.160;2024-03-08T01:15:09;28.20;;;10.30;;
81298;SDS011;70766;53.170;18.160;2024-03-08T01:17:38;24.00;;;9.70;;
81298;SDS011;70766;53.170;18.160;2024-03-08T01:20:07;24.80;;;9.50;;
81298;SDS011;70766;53.170;18.160;2024-03-08T01:22:40;31.40;;;12.20;;
81298;SDS011;70766;53.170;18.160;2024-03-08T01:25:08;25.80;;;10.20;;
81298;SDS011;70766;53.170;18.160;2024-03-08T01:27:36;21.90;;;9.50;;
81298;SDS011;70766;53.170;18.160;2024-03-08T01:30:05;23.30;;;9.50;;
81298;SDS011;70766;53.170;18.160;2024-03-08T01:32:34;23.30;;;9.90;;
81298;SDS011;70766;53.170;18.160;2024-03-08T01:35:02;21.80;;;8.80;;
81298;SDS011;70766;53.170;18.160;2024-03-08T01:37:31;28.20;;;9.50;;
81298;SDS011;70766;53.170;18.160;2024-03-08T01:39:59;32.60;;;12.90;;
81298;SDS011;70766;53.170;18.160;2024-03-08T01:42:28;30.10;;;12.00;;
81298;SDS011;70766;53.170;18.160;2024-03-08T01:44:56;32.50;;;11.80;;
81298;SDS011;70766;53.170;18.160;2024-03-08T01:47:25;33.90;;;13.40;;
81298;SDS011;70766;53.170;18.160;2024-03-08T01:49:53;28.80;;;11.20;;
81298;SDS011;70766;53.170;18.160;2024-03-08T01:52:22;30.60;;;11.20;;
81298;SDS011;70766;53.170;18.160;2024-03-08T01:54:51;29.60;;;11.00;;
81298;SDS011;70766;53.170;18.160;2024-03-08T01:57:20;31.10;;;11.80;;
81298;SDS011;70766;53.170;18.160;2024-03-08T01:59:49;26.90;;;10.00;;
81298;SDS011;70766;53.170;18.160;2024-03-08T02:02:18;29.30;;;12.60;;
81298;SDS011;70766;53.170;18.160;2024-03-08T02:04:48;28.30;;;12.00;;
81298;SDS011;70766;53.170;18.160;2024-03-08T02:07:21;27.30;;;10.60;;
81298;SDS011;70766;53.170;18.160;2024-03-08T02:09:49;19.60;;;7.50;;
81298;SDS011;70766;53.170;18.160;2024-03-08T02:12:19;27.60;;;10.60;;
81298;SDS011;70766;53.170;18.160;2024-03-08T02:14:51;26.10;;;9.50;;
81298;SDS011;70766;53.170;18.160;2024-03-08T02:17:22;30.80;;;13.30;;
81298;SDS011;70766;53.170;18.160;2024-03-08T02:19:50;33.20;;;11.70;;
81298;SDS011;70766;53.170;18.160;2024-03-08T02:22:18;26.50;;;11.80;;
81298;SDS011;70766;53.170;18.160;2024-03-08T02:24:48;29.30;;;11.90;;
81298;SDS011;70766;53.170;18.160;2024-03-08T02:27:23;26.20;;;9.90;;
81298;SDS011;70766;53.170;18.160;2024-03-08T02:29:53;29.70;;;11.60;;
81298;SDS011;70766;53.170;18.160;2024-03-08T02:32:25;24.10;;;10.30;;
81298;SDS011;70766;53.170;18.160;2024-03-08T02:34:56;29.80;;;11.30;;
81298;SDS011;70766;53.170;18.160;2024-03-08T02:37:28;22.20;;;9.10;;
81298;SDS011;70766;53.170;18.160;2024-03-08T02:39:56;27.30;;;11.00;;
81298;SDS011;70766;53.170;18.160;2024-03-08T02:42:24;27.80;;;11.30;;
81298;SDS011;70766;53.170;18.160;2024-03-08T02:44:52;37.10;;;12.40;;
81298;SDS011;70766;53.170;18.160;2024-03-08T02:47:21;30.60;;;12.50;;
81298;SDS011;70766;53.170;18.160;2024-03-08T02:49:53;29.00;;;11.30;;
81298;SDS011;70766;53.170;18.160;2024-03-08T02:52:21;21.50;;;9.80;;
81298;SDS011;70766;53.170;18.160;2024-03-08T02:54:49;29.50;;;10.90;;
81298;SDS011;70766;53.170;18.160;2024-03-08T02:57:17;22.90;;;9.50;;
81298;SDS011;70766;53.170;18.160;2024-03-08T02:59:46;31.90;;;11.80;;
81298;SDS011;70766;53.170;18.160;2024-03-08T03:02:14;32.30;;;12.90;;
81298;SDS011;70766;53.170;18.160;2024-03-08T03:04:44;29.40;;;10.80;;
81298;SDS011;70766;53.170;18.160;2024-03-08T03:07:12;27.10;;;10.10;;
81298;SDS011;70766;53.170;18.160;2024-03-08T03:09:41;30.40;;;12.40;;
81298;SDS011;70766;53.170;18.160;2024-03-08T03:12:09;29.80;;;11.80;;
81298;SDS011;70766;53.170;18.160;2024-03-08T03:14:37;32.20;;;11.90;;
81298;SDS011;70766;53.170;18.160;2024-03-08T03:17:09;30.30;;;12.40;;
81298;SDS011;70766;53.170;18.160;2024-03-08T03:19:40;32.50;;;12.60;;
81298;SDS011;70766;53.170;18.160;2024-03-08T03:22:10;33.60;;;13.20;;
81298;SDS011;70766;53.170;18.160;2024-03-08T03:24:38;29.70;;;10.60;;
81298;SDS011;70766;53.170;18.160;2024-03-08T03:27:06;35.30;;;14.20;;
81298;SDS011;70766;53.170;18.160;2024-03-08T03:29:39;31.90;;;12.70;;
81298;SDS011;70766;53.170;18.160;2024-03-08T03:32:10;30.30;;;11.30;;
81298;SDS011;70766;53.170;18.160;2024-03-08T03:34:40;31.30;;;12.50;;
81298;SDS011;70766;53.170;18.160;2024-03-08T03:37:11;32.90;;;13.20;;
81298;SDS011;70766;53.170;18.160;2024-03-08T03:39:42;29.40;;;11.50;;
81298;SDS011;70766;53.170;18.160;2024-03-08T03:42:17;28.60;;;12.10;;
81298;SDS011;70766;53.170;18.160;2024-03-08T03:44:47;33.50;;;11.50;;
81298;SDS011;70766;53.170;18.160;2024-03-08T03:47:16;30.40;;;11.00;;
81298;SDS011;70766;53.170;18.160;2024-03-08T03:49:44;45.30;;;14.50;;
81298;SDS011;70766;53.170;18.160;2024-03-08T03:52:13;35.30;;;13.60;;
81298;SDS011;70766;53.170;18.160;2024-03-08T03:54:41;41.10;;;14.50;;
81298;SDS011;70766;53.170;18.160;2024-03-08T03:57:10;31.40;;;12.90;;
81298;SDS011;70766;53.170;18.160;2024-03-08T03:59:38;35.30;;;12.80;;
81298;SDS011;70766;53.170;18.160;2024-03-08T04:02:07;39.50;;;14.80;;
81298;SDS011;70766;53.170;18.160;2024-03-08T04:04:35;34.30;;;14.50;;
81298;SDS011;70766;53.170;18.160;2024-03-08T04:07:03;32.70;;;13.10;;
81298;SDS011;70766;53.170;18.160;2024-03-08T04:09:34;36.80;;;13.20;;
81298;SDS011;70766;53.170;18.160;2024-03-08T04:12:03;30.90;;;10.30;;
81298;SDS011;70766;53.170;18.160;2024-03-08T04:14:32;27.00;;;8.60;;
81298;SDS011;70766;53.170;18.160;2024-03-08T04:17:00;43.50;;;15.80;;
81298;SDS011;70766;53.170;18.160;2024-03-08T04:19:30;42.80;;;17.30;;
81298;SDS011;70766;53.170;18.160;2024-03-08T04:21:58;50.00;;;18.40;;
81298;SDS011;70766;53.170;18.160;2024-03-08T04:24:28;47.80;;;17.10;;
81298;SDS011;70766;53.170;18.160;2024-03-08T04:26:56;39.10;;;15.70;;
81298;SDS011;70766;53.170;18.160;2024-03-08T04:29:25;51.50;;;18.20;;
81298;SDS011;70766;53.170;18.160;2024-03-08T04:31:55;58.80;;;21.30;;
81298;SDS011;70766;53.170;18.160;2024-03-08T04:34:23;51.10;;;18.30;;
81298;SDS011;70766;53.170;18.160;2024-03-08T04:36:52;28.20;;;11.50;;
81298;SDS011;70766;53.170;18.160;2024-03-08T04:39:21;41.70;;;15.20;;
81298;SDS011;70766;53.170;18.160;2024-03-08T04:41:49;43.00;;;15.70;;
81298;SDS011;70766;53.170;18.160;2024-03-08T04:44:18;28.30;;;10.50;;
81298;SDS011;70766;53.170;18.160;2024-03-08T04:46:46;53.40;;;18.10;;
81298;SDS011;70766;53.170;18.160;2024-03-08T04:49:14;44.30;;;16.10;;
81298;SDS011;70766;53.170;18.160;2024-03-08T04:51:42;42.40;;;14.90;;
81298;SDS011;70766;53.170;18.160;2024-03-08T04:54:12;60.20;;;19.00;;
81298;SDS011;70766;53.170;18.160;2024-03-08T04:56:41;31.10;;;7.60;;
81298;SDS011;70766;53.170;18.160;2024-03-08T04:59:09;57.60;;;18.20;;
81298;SDS011;70766;53.170;18.160;2024-03-08T05:01:37;50.40;;;16.70;;
81298;SDS011;70766;53.170;18.160;2024-03-08T05:04:05;72.60;;;18.70;;
81298;SDS011;70766;53.170;18.160;2024-03-08T05:06:37;58.10;;;18.60;;
81298;SDS011;70766;53.170;18.160;2024-03-08T05:09:05;41.20;;;14.70;;
81298;SDS011;70766;53.170;18.160;2024-03-08T05:11:42;51.20;;;18.30;;
81298;SDS011;70766;53.170;18.160;2024-03-08T05:14:13;27.90;;;10.20;;
81298;SDS011;70766;53.170;18.160;2024-03-08T05:16:48;52.70;;;16.80;;
81298;SDS011;70766;53.170;18.160;2024-03-08T05:19:20;67.80;;;18.90;;
81298;SDS011;70766;53.170;18.160;2024-03-08T05:21:49;101.10;;;20.40;;
81298;SDS011;70766;53.170;18.160;2024-03-08T05:24:18;74.60;;;18.80;;
81298;SDS011;70766;53.170;18.160;2024-03-08T05:26:46;45.00;;;17.20;;
81298;SDS011;70766;53.170;18.160;2024-03-08T05:29:16;112.60;;;23.50;;
81298;SDS011;70766;53.170;18.160;2024-03-08T05:31:47;60.50;;;18.00;;
81298;SDS011;70766;53.170;18.160;2024-03-08T05:34:17;76.20;;;18.10;;
81298;SDS011;70766;53.170;18.160;2024-03-08T05:36:46;42.00;;;15.60;;
81298;SDS011;70766;53.170;18.160;2024-03-08T05:39:15;39.60;;;13.30;;
81298;SDS011;70766;53.170;18.160;2024-03-08T05:41:43;46.00;;;17.00;;
81298;SDS011;70766;53.170;18.160;2024-03-08T05:44:12;87.80;;;19.50;;
81298;SDS011;70766;53.170;18.160;2024-03-08T05:46:41;79.70;;;19.80;;
81298;SDS011;70766;53.170;18.160;2024-03-08T05:49:09;57.00;;;17.60;;
81298;SDS011;70766;53.170;18.160;2024-03-08T05:51:41;42.30;;;16.10;;
81298;SDS011;70766;53.170;18.160;2024-03-08T05:54:10;49.50;;;17.50;;
81298;SDS011;70766;53.170;18.160;2024-03-08T05:56:43;69.10;;;18.70;;
81298;SDS011;70766;53.170;18.160;2024-03-08T05:59:13;76.00;;;19.50;;
81298;SDS011;70766;53.170;18.160;2024-03-08T06:01:41;92.40;;;19.60;;
81298;SDS011;70766;53.170;18.160;2024-03-08T06:04:10;61.30;;;15.70;;
81298;SDS011;70766;53.170;18.160;2024-03-08T06:06:40;65.30;;;20.20;;
81298;SDS011;70766;53.170;18.160;2024-03-08T06:09:09;77.50;;;18.20;;
81298;SDS011;70766;53.170;18.160;2024-03-08T06:11:40;62.00;;;15.10;;
81298;SDS011;70766;53.170;18.160;2024-03-08T06:14:10;70.20;;;18.20;;
81298;SDS011;70766;53.170;18.160;2024-03-08T06:16:39;43.70;;;14.90;;
81298;SDS011;70766;53.170;18.160;2024-03-08T06:19:07;46.30;;;17.10;;
81298;SDS011;70766;53.170;18.160;2024-03-08T06:21:36;73.00;;;18.90;;
81298;SDS011;70766;53.170;18.160;2024-03-08T06:24:04;45.00;;;15.70;;
81298;SDS011;70766;53.170;18.160;2024-03-08T06:26:32;48.70;;;16.20;;
81298;SDS011;70766;53.170;18.160;2024-03-08T06:29:06;68.10;;;17.50;;
81298;SDS011;70766;53.170;18.160;2024-03-08T06:31:36;62.60;;;18.60;;
81298;SDS011;70766;53.170;18.160;2024-03-08T06:34:07;31.20;;;11.40;;
81298;SDS011;70766;53.170;18.160;2024-03-08T06:36:36;70.90;;;16.80;;
81298;SDS011;70766;53.170;18.160;2024-03-08T06:39:06;55.50;;;17.00;;
81298;SDS011;70766;53.170;18.160;2024-03-08T06:41:38;34.60;;;12.80;;
81298;SDS011;70766;53.170;18.160;2024-03-08T06:44:06;59.20;;;17.70;;
81298;SDS011;70766;53.170;18.160;2024-03-08T06:46:37;34.40;;;13.30;;
81298;SDS011;70766;53.170;18.160;2024-03-08T06:49:06;55.40;;;16.00;;
81298;SDS011;70766;53.170;18.160;2024-03-08T06:51:35;32.00;;;11.70;;
81298;SDS011;70766;53.170;18.160;2024-03-08T06:54:05;45.70;;;17.20;;
81298;SDS011;70766;53.170;18.160;2024-03-08T06:56:37;40.40;;;15.90;;
81298;SDS011;70766;53.170;18.160;2024-03-08T06:59:05;33.10;;;11.40;;
81298;SDS011;70766;53.170;18.160;2024-03-08T07:01:34;48.70;;;16.00;;
81298;SDS011;70766;53.170;18.160;2024-03-08T07:04:04;63.20;;;14.90;;
81298;SDS011;70766;53.170;18.160;2024-03-08T07:06:33;25.10;;;10.10;;
81298;SDS011;70766;53.170;18.160;2024-03-08T07:09:01;44.70;;;16.40;;
81298;SDS011;70766;53.170;18.160;2024-03-08T07:11:30;57.10;;;15.90;;
81298;SDS011;70766;53.170;18.160;2024-03-08T07:13:58;52.00;;;15.50;;
81298;SDS011;70766;53.170;18.160;2024-03-08T07:16:27;36.40;;;13.70;;
81298;SDS011;70766;53.170;18.160;2024-03-08T07:18:56;16.50;;;7.10;;
81298;SDS011;70766;53.170;18.160;2024-03-08T07:21:27;33.80;;;12.40;;
81298;SDS011;70766;53.170;18.160;2024-03-08T07:23:55;45.90;;;17.40;;
81298;SDS011;70766;53.170;18.160;2024-03-08T07:26:29;56.50;;;19.30;;
81298;SDS011;70766;53.170;18.160;2024-03-08T07:28:58;47.30;;;15.30;;
81298;SDS011;70766;53.170;18.160;2024-03-08T07:31:28;47.30;;;18.10;;
81298;SDS011;70766;53.170;18.160;2024-03-08T07:34:05;20.70;;;8.70;;
81298;SDS011;70766;53.170;18.160;2024-03-08T07:36:35;32.40;;;12.80;;
81298;SDS011;70766;53.170;18.160;2024-03-08T07:39:03;39.90;;;15.40;;
81298;SDS011;70766;53.170;18.160;2024-03-08T07:41:37;37.80;;;15.20;;
81298;SDS011;70766;53.170;18.160;2024-03-08T07:44:08;38.90;;;16.10;;
81298;SDS011;70766;53.170;18.160;2024-03-08T07:46:36;39.40;;;16.10;;
81298;SDS011;70766;53.170;18.160;2024-03-08T07:49:06;36.30;;;15.10;;
81298;SDS011;70766;53.170;18.160;2024-03-08T07:51:34;38.80;;;16.70;;
81298;SDS011;70766;53.170;18.160;2024-03-08T07:54:03;35.20;;;15.60;;
81298;SDS011;70766;53.170;18.160;2024-03-08T07:56:37;36.80;;;15.20;;
81298;SDS011;70766;53.170;18.160;2024-03-08T07:59:05;37.20;;;16.20;;
81298;SDS011;70766;53.170;18.160;2024-03-08T08:01:34;42.70;;;17.60;;
81298;SDS011;70766;53.170;18.160;2024-03-08T08:04:02;38.10;;;15.60;;
81298;SDS011;70766;53.170;18.160;2024-03-08T08:06:30;39.00;;;17.10;;
81298;SDS011;70766;53.170;18.160;2024-03-08T08:09:02;36.20;;;16.10;;
81298;SDS011;70766;53.170;18.160;2024-03-08T08:11:30;35.70;;;15.00;;
81298;SDS011;70766;53.170;18.160;2024-03-08T08:14:00;35.80;;;16.80;;
81298;SDS011;70766;53.170;18.160;2024-03-08T08:16:28;36.30;;;16.50;;
81298;SDS011;70766;53.170;18.160;2024-03-08T08:18:56;35.20;;;16.50;;
81298;SDS011;70766;53.170;18.160;2024-03-08T08:21:24;36.80;;;15.90;;
81298;SDS011;70766;53.170;18.160;2024-03-08T08:23:54;34.20;;;16.60;;
81298;SDS011;70766;53.170;18.160;2024-03-08T08:26:22;36.60;;;16.30;;
81298;SDS011;70766;53.170;18.160;2024-03-08T08:28:54;30.40;;;13.90;;
81298;SDS011;70766;53.170;18.160;2024-03-08T08:31:22;32.20;;;16.40;;
81298;SDS011;70766;53.170;18.160;2024-03-08T08:33:52;34.10;;;16.30;;
81298;SDS011;70766;53.170;18.160;2024-03-08T08:36:26;34.50;;;15.70;;
81298;SDS011;70766;53.170;18.160;2024-03-08T08:38:57;26.80;;;11.80;;
81298;SDS011;70766;53.170;18.160;2024-03-08T08:41:27;34.10;;;14.70;;
81298;SDS011;70766;53.170;18.160;2024-03-08T08:43:57;34.20;;;15.80;;
81298;SDS011;70766;53.170;18.160;2024-03-08T08:46:41;32.70;;;16.20;;
81298;SDS011;70766;53.170;18.160;2024-03-08T08:49:10;38.90;;;16.70;;
81298;SDS011;70766;53.170;18.160;2024-03-08T08:51:48;28.40;;;13.80;;
81298;SDS011;70766;53.170;18.160;2024-03-08T08:54:17;30.20;;;15.30;;
81298;SDS011;70766;53.170;18.160;2024-03-08T08:56:45;35.50;;;16.60;;
81298;SDS011;70766;53.170;18.160;2024-03-08T08:59:15;31.00;;;15.50;;
81298;SDS011;70766;53.170;18.160;2024-03-08T09:01:48;29.80;;;16.40;;
81298;SDS011;70766;53.170;18.160;2024-03-08T09:04:18;33.00;;;15.90;;
81298;SDS011;70766;53.170;18.160;2024-03-08T09:06:47;34.40;;;16.70;;
81298;SDS011;70766;53.170;18.160;2024-03-08T09:09:15;30.50;;;15.90;;
81298;SDS011;70766;53.170;18.160;2024-03-08T09:11:44;30.60;;;15.70;;
81298;SDS011;70766;53.170;18.160;2024-03-08T09:14:14;25.80;;;12.80;;
81298;SDS011;70766;53.170;18.160;2024-03-08T09:16:42;30.50;;;15.00;;
81298;SDS011;70766;53.170;18.160;2024-03-08T09:19:11;32.80;;;16.00;;
81298;SDS011;70766;53.170;18.160;2024-03-08T09:21:39;32.70;;;15.90;;
81298;SDS011;70766;53.170;18.160;2024-03-08T09:24:10;25.10;;;12.80;;
81298;SDS011;70766;53.170;18.160;2024-03-08T09:26:38;27.80;;;14.60;;
81298;SDS011;70766;53.170;18.160;2024-03-08T09:29:11;22.80;;;11.80;;
81298;SDS011;70766;53.170;18.160;2024-03-08T09:31:39;25.60;;;12.90;;
81298;SDS011;70766;53.170;18.160;2024-03-08T09:34:08;21.80;;;11.60;;
81298;SDS011;70766;53.170;18.160;2024-03-08T09:36:42;21.30;;;11.80;;
81298;SDS011;70766;53.170;18.160;2024-03-08T09:39:10;26.30;;;14.30;;
81298;SDS011;70766;53.170;18.160;2024-03-08T09:41:44;24.50;;;13.30;;
81298;SDS011;70766;53.170;18.160;2024-03-08T09:44:16;22.20;;;11.40;;
81298;SDS011;70766;53.170;18.160;2024-03-08T09:46:44;23.50;;;11.30;;
81298;SDS011;70766;53.170;18.160;2024-03-08T09:49:15;21.50;;;11.60;;
81298;SDS011;70766;53.170;18.160;2024-03-08T09:51:44;24.90;;;13.70;;
81298;SDS011;70766;53.170;18.160;2024-03-08T09:54:14;24.50;;;13.20;;
81298;SDS011;70766;53.170;18.160;2024-03-08T09:56:51;32.00;;;14.70;;
81298;SDS011;70766;53.170;18.160;2024-03-08T09:59:21;29.50;;;13.90;;
81298;SDS011;70766;53.170;18.160;2024-03-08T10:01:55;26.10;;;13.60;;
81298;SDS011;70766;53.170;18.160;2024-03-08T10:04:30;23.40;;;13.40;;
81298;SDS011;70766;53.170;18.160;2024-03-08T10:07:00;26.20;;;14.30;;
81298;SDS011;70766;53.170;18.160;2024-03-08T10:09:29;30.20;;;13.30;;
81298;SDS011;70766;53.170;18.160;2024-03-08T10:11:58;23.40;;;12.70;;
81298;SDS011;70766;53.170;18.160;2024-03-08T10:14:27;20.40;;;9.80;;
81298;SDS011;70766;53.170;18.160;2024-03-08T10:16:55;19.30;;;10.70;;
81298;SDS011;70766;53.170;18.160;2024-03-08T10:19:28;20.90;;;12.00;;
81298;SDS011;70766;53.170;18.160;2024-03-08T10:21:59;20.30;;;11.00;;
81298;SDS011;70766;53.170;18.160;2024-03-08T10:24:28;21.90;;;12.20;;
81298;SDS011;70766;53.170;18.160;2024-03-08T10:27:00;20.60;;;11.50;;
81298;SDS011;70766;53.170;18.160;2024-03-08T10:29:32;20.10;;;10.50;;
81298;SDS011;70766;53.170;18.160;2024-03-08T10:32:01;22.20;;;11.30;;
81298;SDS011;70766;53.170;18.160;2024-03-08T10:34:30;20.30;;;9.80;;
81298;SDS011;70766;53.170;18.160;2024-03-08T10:37:01;19.80;;;11.10;;
81298;SDS011;70766;53.170;18.160;2024-03-08T10:39:34;18.40;;;9.70;;
81298;SDS011;70766;53.170;18.160;2024-03-08T10:42:04;16.60;;;9.20;;
81298;SDS011;70766;53.170;18.160;2024-03-08T10:44:40;15.20;;;8.00;;
81298;SDS011;70766;53.170;18.160;2024-03-08T10:47:18;21.20;;;10.80;;
81298;SDS011;70766;53.170;18.160;2024-03-08T10:50:08;19.40;;;8.90;;
81298;SDS011;70766;53.170;18.160;2024-03-08T10:52:46;18.80;;;10.50;;
81298;SDS011;70766;53.170;18.160;2024-03-08T10:55:19;19.50;;;10.80;;
81298;SDS011;70766;53.170;18.160;2024-03-08T10:57:50;16.60;;;9.20;;
81298;SDS011;70766;53.170;18.160;2024-03-08T11:00:19;16.20;;;8.60;;
81298;SDS011;70766;53.170;18.160;2024-03-08T11:02:55;17.10;;;9.50;;
81298;SDS011;70766;53.170;18.160;2024-03-08T11:10:50;16.00;;;8.10;;
81298;SDS011;70766;53.170;18.160;2024-03-08T11:13:35;13.80;;;7.80;;
81298;SDS011;70766;53.170;18.160;2024-03-08T11:16:07;24.10;;;9.80;;
81298;SDS011;70766;53.170;18.160;2024-03-08T11:18:37;19.00;;;9.50;;
81298;SDS011;70766;53.170;18.160;2024-03-08T11:21:07;14.60;;;8.20;;
81298;SDS011;70766;53.170;18.160;2024-03-08T11:23:40;12.90;;;6.60;;
81298;SDS011;70766;53.170;18.160;2024-03-08T11:26:19;17.60;;;8.70;;
81298;SDS011;70766;53.170;18.160;2024-03-08T11:28:49;18.80;;;10.10;;
81298;SDS011;70766;53.170;18.160;2024-03-08T11:31:23;17.10;;;9.00;;
81298;SDS011;70766;53.170;18.160;2024-03-08T11:33:53;16.80;;;8.90;;
81298;SDS011;70766;53.170;18.160;2024-03-08T11:36:22;15.70;;;8.80;;
81298;SDS011;70766;53.170;18.160;2024-03-08T11:38:52;22.20;;;10.60;;
81298;SDS011;70766;53.170;18.160;2024-03-08T11:41:22;21.40;;;11.90;;
81298;SDS011;70766;53.170;18.160;2024-03-08T11:44:04;25.00;;;12.60;;
81298;SDS011;70766;53.170;18.160;2024-03-08T11:46:34;22.30;;;10.60;;
81298;SDS011;70766;53.170;18.160;2024-03-08T11:49:02;22.50;;;12.10;;
81298;SDS011;70766;53.170;18.160;2024-03-08T11:51:31;23.90;;;12.00;;
81298;SDS011;70766;53.170;18.160;2024-03-08T11:54:00;23.30;;;12.30;;
81298;SDS011;70766;53.170;18.160;2024-03-08T11:56:29;20.30;;;11.20;;
81298;SDS011;70766;53.170;18.160;2024-03-08T11:58:57;18.60;;;9.80;;
81298;SDS011;70766;53.170;18.160;2024-03-08T12:01:26;21.30;;;11.20;;
81298;SDS011;70766;53.170;18.160;2024-03-08T12:03:56;22.90;;;12.30;;
81298;SDS011;70766;53.170;18.160;2024-03-08T12:06:27;19.30;;;11.10;;
81298;SDS011;70766;53.170;18.160;2024-03-08T12:09:08;17.60;;;9.20;;
81298;SDS011;70766;53.170;18.160;2024-03-08T12:11:38;23.00;;;12.30;;
81298;SDS011;70766;53.170;18.160;2024-03-08T12:14:07;22.30;;;12.50;;
81298;SDS011;70766;53.170;18.160;2024-03-08T12:16:38;15.80;;;9.10;;
81298;SDS011;70766;53.170;18.160;2024-03-08T12:19:07;21.40;;;10.40;;
81298;SDS011;70766;53.170;18.160;2024-03-08T12:21:37;18.50;;;9.90;;
81298;SDS011;70766;53.170;18.160;2024-03-08T12:24:09;26.90;;;11.80;;
81298;SDS011;70766;53.170;18.160;2024-03-08T12:26:38;28.40;;;13.10;;
81298;SDS011;70766;53.170;18.160;2024-03-08T12:29:14;24.20;;;13.40;;
81298;SDS011;70766;53.170;18.160;2024-03-08T12:31:50;20.50;;;11.20;;
81298;SDS011;70766;53.170;18.160;2024-03-08T12:34:21;22.60;;;11.30;;
81298;SDS011;70766;53.170;18.160;2024-03-08T12:36:50;20.10;;;10.30;;
81298;SDS011;70766;53.170;18.160;2024-03-08T12:39:22;19.60;;;10.40;;
81298;SDS011;70766;53.170;18.160;2024-03-08T12:41:58;23.40;;;12.30;;
81298;SDS011;70766;53.170;18.160;2024-03-08T12:44:27;21.20;;;11.10;;
81298;SDS011;70766;53.170;18.160;2024-03-08T12:46:57;18.40;;;9.70;;
81298;SDS011;70766;53.170;18.160;2024-03-08T12:49:27;15.70;;;8.80;;
81298;SDS011;70766;53.170;18.160;2024-03-08T12:51:56;20.00;;;10.40;;
81298;SDS011;70766;53.170;18.160;2024-03-08T12:54:24;18.70;;;10.20;;
81298;SDS011;70766;53.170;18.160;2024-03-08T12:56:52;20.90;;;10.80;;
81298;SDS011;70766;53.170;18.160;2024-03-08T12:59:24;21.30;;;11.20;;
81298;SDS011;70766;53.170;18.160;2024-03-08T13:01:52;19.30;;;10.00;;
81298;SDS011;70766;53.170;18.160;2024-03-08T13:04:22;22.40;;;11.30;;
81298;SDS011;70766;53.170;18.160;2024-03-08T13:06:50;18.10;;;9.90;;
81298;SDS011;70766;53.170;18.160;2024-03-08T13:09:22;19.00;;;9.40;;
81298;SDS011;70766;53.170;18.160;2024-03-08T13:11:50;22.90;;;12.60;;
81298;SDS011;70766;53.170;18.160;2024-03-08T13:14:19;17.60;;;9.70;;
81298;SDS011;70766;53.170;18.160;2024-03-08T13:16:47;20.50;;;10.30;;
81298;SDS011;70766;53.170;18.160;2024-03-08T13:19:17;17.00;;;9.40;;
81298;SDS011;70766;53.170;18.160;2024-03-08T13:21:45;21.20;;;12.60;;
81298;SDS011;70766;53.170;18.160;2024-03-08T13:24:17;19.30;;;10.30;;
81298;SDS011;70766;53.170;18.160;2024-03-08T13:26:47;18.90;;;10.10;;
81298;SDS011;70766;53.170;18.160;2024-03-08T13:29:18;18.10;;;9.50;;
81298;SDS011;70766;53.170;18.160;2024-03-08T13:31:47;16.50;;;9.50;;
81298;SDS011;70766;53.170;18.160;2024-03-08T13:34:20;18.40;;;9.60;;
81298;SDS011;70766;53.170;18.160;2024-03-08T13:36:58;17.60;;;9.30;;
81298;SDS011;70766;53.170;18.160;2024-03-08T13:39:29;16.20;;;8.50;;
81298;SDS011;70766;53.170;18.160;2024-03-08T13:41:59;21.00;;;10.60;;
81298;SDS011;70766;53.170;18.160;2024-03-08T13:44:27;18.50;;;8.80;;
81298;SDS011;70766;53.170;18.160;2024-03-08T13:46:55;15.40;;;7.90;;
81298;SDS011;70766;53.170;18.160;2024-03-08T13:49:26;18.60;;;9.10;;
81298;SDS011;70766;53.170;18.160;2024-03-08T13:51:55;17.40;;;7.50;;
81298;SDS011;70766;53.170;18.160;2024-03-08T13:54:26;17.80;;;6.70;;
81298;SDS011;70766;53.170;18.160;2024-03-08T13:56:55;17.60;;;8.30;;
81298;SDS011;70766;53.170;18.160;2024-03-08T13:59:24;14.40;;;7.60;;
81298;SDS011;70766;53.170;18.160;2024-03-08T14:01:53;16.30;;;8.60;;
81298;SDS011;70766;53.170;18.160;2024-03-08T14:04:21;14.70;;;6.70;;
81298;SDS011;70766;53.170;18.160;2024-03-08T14:06:49;16.00;;;7.70;;
81298;SDS011;70766;53.170;18.160;2024-03-08T14:09:19;20.20;;;8.70;;
81298;SDS011;70766;53.170;18.160;2024-03-08T14:11:47;15.30;;;7.30;;
81298;SDS011;70766;53.170;18.160;2024-03-08T14:14:16;15.70;;;7.30;;
81298;SDS011;70766;53.170;18.160;2024-03-08T14:16:45;11.60;;;6.40;;
81298;SDS011;70766;53.170;18.160;2024-03-08T14:19:14;17.90;;;9.50;;
81298;SDS011;70766;53.170;18.160;2024-03-08T14:21:43;16.40;;;7.50;;
81298;SDS011;70766;53.170;18.160;2024-03-08T14:24:11;17.20;;;8.80;;
81298;SDS011;70766;53.170;18.160;2024-03-08T14:26:40;16.40;;;8.80;;
81298;SDS011;70766;53.170;18.160;2024-03-08T14:29:11;17.40;;;8.50;;
81298;SDS011;70766;53.170;18.160;2024-03-08T14:31:39;19.10;;;8.30;;
81298;SDS011;70766;53.170;18.160;2024-03-08T14:34:09;17.00;;;6.60;;